sensor_id;sensor_type;location;lat;lon;timestamp;pressure;altitude;pressure_sealevel;temperature;humidity
19005;BME280;9635;52.078;8.648;2023-05-29T00:00:02;100980.41;;;13.02;62.34
19005;BME280;9635;52.078;8.648;2023-05-29T00:05:12;100982.41;;;12.77;62.60
19005;BME280;9635;52.078;8.648;2023-05-29T00:10:15;100990.13;;;12.82;62.54
19005;BME280;9635;52.078;8.648;2023-05-29T00:15:18;100986.34;;;12.73;62.44
19005;BME280;9635;52.078;8.648;2023-05-29T00:20:23;100998.34;;;12.69;62.17
19005;BME280;9635;52.078;8.648;2023-05-29T00:25:26;100999.84;;;12.62;62.11
19005;BME280;9635;52.078;8.648;2023-05-29T00:30:29;101011.59;;;12.61;61.94
19005;BME280;9635;52.078;8.648;2023-05-29T00:35:33;101013.16;;;12.41;61.99
19005;BME280;9635;52.078;8.648;2023-05-29T00:40:37;101011.53;;;12.27;62.07
19005;BME280;9635;52.078;8.648;2023-05-29T00:45:42;101023.91;;;11.83;63.06
19005;BME280;9635;52.078;8.648;2023-05-29T00:50:46;101034.28;;;11.77;63.21
19005;BME280;9635;52.078;8.648;2023-05-29T00:55:51;101025.97;;;11.80;63.00
19005;BME280;9635;52.078;8.648;2023-05-29T01:00:54;101030.38;;;11.81;62.83
19005;BME280;9635;52.078;8.648;2023-05-29T01:05:59;101030.97;;;11.73;62.82
19005;BME280;9635;52.078;8.648;2023-05-29T01:11:07;101031.72;;;11.75;62.79
19005;BME280;9635;52.078;8.648;2023-05-29T01:16:12;101032.13;;;11.58;62.90
19005;BME280;9635;52.078;8.648;2023-05-29T01:21:26;101028.06;;;11.52;63.08
19005;BME280;9635;52.078;8.648;2023-05-29T01:26:45;101037.22;;;11.49;63.35
19005;BME280;9635;52.078;8.648;2023-05-29T01:31:50;101034.00;;;11.44;63.06
19005;BME280;9635;52.078;8.648;2023-05-29T01:36:54;101035.19;;;11.40;63.28
19005;BME280;9635;52.078;8.648;2023-05-29T01:41:59;101027.94;;;11.30;63.59
19005;BME280;9635;52.078;8.648;2023-05-29T01:47:03;101033.97;;;11.33;63.35
19005;BME280;9635;52.078;8.648;2023-05-29T01:52:09;101034.06;;;11.32;63.26
19005;BME280;9635;52.078;8.648;2023-05-29T01:57:14;101046.75;;;11.30;63.34
19005;BME280;9635;52.078;8.648;2023-05-29T02:02:18;101039.94;;;11.13;63.56
19005;BME280;9635;52.078;8.648;2023-05-29T02:07:21;101040.91;;;10.99;63.72
19005;BME280;9635;52.078;8.648;2023-05-29T02:12:25;101045.72;;;11.06;63.72
19005;BME280;9635;52.078;8.648;2023-05-29T02:17:28;101060.59;;;10.87;63.77
19005;BME280;9635;52.078;8.648;2023-05-29T02:22:32;101067.16;;;10.82;64.22
19005;BME280;9635;52.078;8.648;2023-05-29T02:27:36;101069.00;;;10.82;64.02
19005;BME280;9635;52.078;8.648;2023-05-29T02:32:40;101069.31;;;10.77;64.38
19005;BME280;9635;52.078;8.648;2023-05-29T02:37:43;101075.66;;;10.76;64.28
19005;BME280;9635;52.078;8.648;2023-05-29T02:42:51;101071.28;;;10.75;64.10
19005;BME280;9635;52.078;8.648;2023-05-29T02:47:54;101068.47;;;10.77;64.07
19005;BME280;9635;52.078;8.648;2023-05-29T02:52:57;101078.25;;;10.78;64.10
19005;BME280;9635;52.078;8.648;2023-05-29T02:58:01;101082.22;;;10.72;64.26
19005;BME280;9635;52.078;8.648;2023-05-29T03:03:04;101076.84;;;10.72;64.13
19005;BME280;9635;52.078;8.648;2023-05-29T03:08:08;101067.94;;;10.59;64.44
19005;BME280;9635;52.078;8.648;2023-05-29T03:13:13;101065.34;;;10.57;64.57
19005;BME280;9635;52.078;8.648;2023-05-29T03:18:25;101057.09;;;10.48;64.94
19005;BME280;9635;52.078;8.648;2023-05-29T03:23:28;101060.09;;;10.56;64.79
19005;BME280;9635;52.078;8.648;2023-05-29T03:28:33;101076.00;;;10.46;65.15
19005;BME280;9635;52.078;8.648;2023-05-29T03:33:39;101074.19;;;10.59;64.72
19005;BME280;9635;52.078;8.648;2023-05-29T03:38:51;101070.19;;;10.65;64.48
19005;BME280;9635;52.078;8.648;2023-05-29T03:43:55;101080.28;;;10.74;64.72
19005;BME280;9635;52.078;8.648;2023-05-29T03:49:01;101088.44;;;10.86;64.29
19005;BME280;9635;52.078;8.648;2023-05-29T03:54:05;101095.66;;;10.98;63.96
19005;BME280;9635;52.078;8.648;2023-05-29T03:59:10;101101.78;;;11.13;63.40
19005;BME280;9635;52.078;8.648;2023-05-29T04:04:13;101100.56;;;11.04;63.50
19005;BME280;9635;52.078;8.648;2023-05-29T04:09:16;101100.81;;;11.01;63.42
19005;BME280;9635;52.078;8.648;2023-05-29T04:14:21;101111.97;;;11.20;64.01
19005;BME280;9635;52.078;8.648;2023-05-29T04:19:24;101108.28;;;11.34;62.81
19005;BME280;9635;52.078;8.648;2023-05-29T04:24:28;101118.50;;;11.42;62.19
19005;BME280;9635;52.078;8.648;2023-05-29T04:29:35;101120.84;;;11.46;61.35
19005;BME280;9635;52.078;8.648;2023-05-29T04:34:38;101120.97;;;11.45;61.44
19005;BME280;9635;52.078;8.648;2023-05-29T04:39:42;101122.97;;;11.54;61.23
19005;BME280;9635;52.078;8.648;2023-05-29T04:44:52;101132.28;;;11.74;60.93
19005;BME280;9635;52.078;8.648;2023-05-29T04:49:56;101135.53;;;11.90;60.39
19005;BME280;9635;52.078;8.648;2023-05-29T04:54:59;101138.25;;;11.90;59.65
19005;BME280;9635;52.078;8.648;2023-05-29T05:00:03;101126.53;;;11.79;59.31
19005;BME280;9635;52.078;8.648;2023-05-29T05:05:10;101131.69;;;11.82;59.94
19005;BME280;9635;52.078;8.648;2023-05-29T05:10:14;101136.44;;;11.78;59.66
19005;BME280;9635;52.078;8.648;2023-05-29T05:15:18;101144.88;;;11.98;59.39
19005;BME280;9635;52.078;8.648;2023-05-29T05:20:21;101138.97;;;11.92;58.68
19005;BME280;9635;52.078;8.648;2023-05-29T05:25:30;101145.94;;;11.95;58.69
19005;BME280;9635;52.078;8.648;2023-05-29T05:30:36;101149.16;;;12.00;59.07
19005;BME280;9635;52.078;8.648;2023-05-29T05:35:39;101149.84;;;12.15;58.45
19005;BME280;9635;52.078;8.648;2023-05-29T05:40:42;101155.06;;;12.05;58.17
19005;BME280;9635;52.078;8.648;2023-05-29T05:45:55;101151.91;;;12.11;58.30
19005;BME280;9635;52.078;8.648;2023-05-29T05:50:58;101157.19;;;12.13;57.58
19005;BME280;9635;52.078;8.648;2023-05-29T05:56:02;101148.81;;;12.05;58.53
19005;BME280;9635;52.078;8.648;2023-05-29T06:01:06;101157.00;;;12.27;57.97
19005;BME280;9635;52.078;8.648;2023-05-29T06:06:10;101159.63;;;12.29;57.65
19005;BME280;9635;52.078;8.648;2023-05-29T06:11:15;101157.00;;;12.51;57.06
19005;BME280;9635;52.078;8.648;2023-05-29T06:16:21;101161.28;;;12.54;56.71
19005;BME280;9635;52.078;8.648;2023-05-29T06:21:25;101164.09;;;12.52;55.84
19005;BME280;9635;52.078;8.648;2023-05-29T06:26:29;101172.38;;;12.73;56.09
19005;BME280;9635;52.078;8.648;2023-05-29T06:31:35;101175.22;;;13.05;55.21
19005;BME280;9635;52.078;8.648;2023-05-29T06:36:37;101174.25;;;13.07;54.50
19005;BME280;9635;52.078;8.648;2023-05-29T06:41:41;101186.88;;;13.06;54.09
19005;BME280;9635;52.078;8.648;2023-05-29T06:46:48;101188.75;;;13.39;53.95
19005;BME280;9635;52.078;8.648;2023-05-29T06:51:51;101192.69;;;13.58;53.49
19005;BME280;9635;52.078;8.648;2023-05-29T06:56:59;101199.53;;;13.62;52.75
19005;BME280;9635;52.078;8.648;2023-05-29T07:02:12;101203.69;;;13.77;52.28
19005;BME280;9635;52.078;8.648;2023-05-29T07:07:18;101211.25;;;13.94;52.38
19005;BME280;9635;52.078;8.648;2023-05-29T07:12:21;101204.78;;;14.29;51.22
19005;BME280;9635;52.078;8.648;2023-05-29T07:17:26;101204.06;;;14.80;49.96
19005;BME280;9635;52.078;8.648;2023-05-29T07:22:40;101201.63;;;15.60;48.33
19005;BME280;9635;52.078;8.648;2023-05-29T07:27:43;101197.97;;;16.40;47.00
19005;BME280;9635;52.078;8.648;2023-05-29T07:32:48;101207.16;;;17.06;45.24
19005;BME280;9635;52.078;8.648;2023-05-29T07:37:51;101209.50;;;17.93;43.14
19005;BME280;9635;52.078;8.648;2023-05-29T07:42:57;101209.38;;;17.95;43.27
19005;BME280;9635;52.078;8.648;2023-05-29T07:48:12;101206.16;;;18.09;42.44
19005;BME280;9635;52.078;8.648;2023-05-29T07:53:16;101208.09;;;18.34;42.08
19005;BME280;9635;52.078;8.648;2023-05-29T07:58:21;101207.59;;;18.13;42.31
19005;BME280;9635;52.078;8.648;2023-05-29T08:03:26;101209.69;;;17.91;43.26
19005;BME280;9635;52.078;8.648;2023-05-29T08:08:56;101218.81;;;17.90;42.33
19005;BME280;9635;52.078;8.648;2023-05-29T08:14:02;101213.25;;;17.92;42.34
19005;BME280;9635;52.078;8.648;2023-05-29T08:19:07;101226.59;;;18.31;42.33
19005;BME280;9635;52.078;8.648;2023-05-29T08:24:10;101214.00;;;18.48;41.77
19005;BME280;9635;52.078;8.648;2023-05-29T08:29:13;101222.00;;;18.67;41.57
19005;BME280;9635;52.078;8.648;2023-05-29T08:34:17;101220.88;;;18.52;41.69
19005;BME280;9635;52.078;8.648;2023-05-29T08:39:20;101216.97;;;18.54;41.55
19005;BME280;9635;52.078;8.648;2023-05-29T08:44:23;101215.78;;;18.75;41.72
19005;BME280;9635;52.078;8.648;2023-05-29T08:49:28;101229.72;;;18.90;41.25
19005;BME280;9635;52.078;8.648;2023-05-29T08:54:32;101225.91;;;19.09;40.92
19005;BME280;9635;52.078;8.648;2023-05-29T08:59:36;101224.78;;;18.75;40.74
19005;BME280;9635;52.078;8.648;2023-05-29T09:04:42;101227.41;;;19.03;41.30
19005;BME280;9635;52.078;8.648;2023-05-29T09:09:46;101214.75;;;19.46;40.71
19005;BME280;9635;52.078;8.648;2023-05-29T09:14:49;101216.78;;;19.70;40.37
19005;BME280;9635;52.078;8.648;2023-05-29T09:19:53;101231.38;;;20.03;39.11
19005;BME280;9635;52.078;8.648;2023-05-29T09:24:57;101228.25;;;19.90;39.67
19005;BME280;9635;52.078;8.648;2023-05-29T09:30:01;101241.56;;;20.01;39.75
19005;BME280;9635;52.078;8.648;2023-05-29T09:35:07;101224.97;;;20.37;38.58
19005;BME280;9635;52.078;8.648;2023-05-29T09:40:11;101230.31;;;20.04;38.10
19005;BME280;9635;52.078;8.648;2023-05-29T09:45:16;101229.50;;;20.12;37.66
19005;BME280;9635;52.078;8.648;2023-05-29T09:50:25;101229.09;;;20.58;38.23
19005;BME280;9635;52.078;8.648;2023-05-29T09:55:29;101220.22;;;21.13;37.59
19005;BME280;9635;52.078;8.648;2023-05-29T10:00:34;101213.78;;;21.61;37.69
19005;BME280;9635;52.078;8.648;2023-05-29T10:05:39;101211.63;;;21.40;36.73
19005;BME280;9635;52.078;8.648;2023-05-29T10:10:45;101210.59;;;21.89;36.64
19005;BME280;9635;52.078;8.648;2023-05-29T10:15:49;101213.59;;;21.55;37.05
19005;BME280;9635;52.078;8.648;2023-05-29T10:20:58;101202.78;;;22.09;37.09
19005;BME280;9635;52.078;8.648;2023-05-29T10:26:06;101194.56;;;22.09;35.86
19005;BME280;9635;52.078;8.648;2023-05-29T10:31:18;101200.94;;;22.55;35.37
19005;BME280;9635;52.078;8.648;2023-05-29T10:36:29;101208.31;;;23.08;35.69
19005;BME280;9635;52.078;8.648;2023-05-29T10:41:33;101204.50;;;23.32;34.38
19005;BME280;9635;52.078;8.648;2023-05-29T10:47:06;101202.50;;;23.11;34.98
19005;BME280;9635;52.078;8.648;2023-05-29T10:52:12;101185.88;;;23.27;33.73
19005;BME280;9635;52.078;8.648;2023-05-29T10:57:15;101184.31;;;23.69;34.34
19005;BME280;9635;52.078;8.648;2023-05-29T11:02:18;101180.38;;;23.86;33.78
19005;BME280;9635;52.078;8.648;2023-05-29T11:07:39;101184.91;;;24.16;34.39
19005;BME280;9635;52.078;8.648;2023-05-29T11:12:56;101172.91;;;24.17;33.43
19005;BME280;9635;52.078;8.648;2023-05-29T11:18:06;101165.31;;;23.97;33.68
19005;BME280;9635;52.078;8.648;2023-05-29T11:23:14;101166.06;;;24.13;33.76
19005;BME280;9635;52.078;8.648;2023-05-29T11:28:19;101164.09;;;24.43;33.34
19005;BME280;9635;52.078;8.648;2023-05-29T11:33:26;101157.72;;;24.64;34.40
19005;BME280;9635;52.078;8.648;2023-05-29T11:38:30;101164.94;;;25.21;32.53
19005;BME280;9635;52.078;8.648;2023-05-29T11:43:33;101158.25;;;24.74;33.43
19005;BME280;9635;52.078;8.648;2023-05-29T11:48:44;101160.25;;;24.01;33.81
19005;BME280;9635;52.078;8.648;2023-05-29T11:53:49;101148.88;;;25.25;33.17
19005;BME280;9635;52.078;8.648;2023-05-29T11:58:55;101156.19;;;25.11;32.49
19005;BME280;9635;52.078;8.648;2023-05-29T12:04:01;101150.72;;;25.17;32.68
19005;BME280;9635;52.078;8.648;2023-05-29T12:09:05;101157.09;;;25.18;32.87
19005;BME280;9635;52.078;8.648;2023-05-29T12:14:08;101152.91;;;25.01;33.12
19005;BME280;9635;52.078;8.648;2023-05-29T12:19:11;101153.75;;;25.29;31.79
19005;BME280;9635;52.078;8.648;2023-05-29T12:24:17;101150.50;;;25.60;32.09
19005;BME280;9635;52.078;8.648;2023-05-29T12:29:29;101147.94;;;26.07;31.86
19005;BME280;9635;52.078;8.648;2023-05-29T12:34:34;101143.53;;;26.33;31.27
19005;BME280;9635;52.078;8.648;2023-05-29T12:39:40;101142.69;;;26.65;30.17
19005;BME280;9635;52.078;8.648;2023-05-29T12:44:43;101125.94;;;26.20;30.56
19005;BME280;9635;52.078;8.648;2023-05-29T12:49:46;101135.63;;;25.90;31.62
19005;BME280;9635;52.078;8.648;2023-05-29T12:54:50;101142.28;;;26.35;31.26
19005;BME280;9635;52.078;8.648;2023-05-29T12:59:53;101134.88;;;26.69;31.51
19005;BME280;9635;52.078;8.648;2023-05-29T13:04:56;101136.97;;;26.73;30.57
19005;BME280;9635;52.078;8.648;2023-05-29T13:10:00;101137.41;;;26.50;31.04
19005;BME280;9635;52.078;8.648;2023-05-29T13:15:04;101142.00;;;26.03;31.58
19005;BME280;9635;52.078;8.648;2023-05-29T13:20:08;101142.94;;;26.31;31.12
19005;BME280;9635;52.078;8.648;2023-05-29T13:25:15;101142.06;;;26.77;30.91
19005;BME280;9635;52.078;8.648;2023-05-29T13:30:18;101135.94;;;26.74;31.01
19005;BME280;9635;52.078;8.648;2023-05-29T13:35:21;101131.28;;;26.42;30.88
19005;BME280;9635;52.078;8.648;2023-05-29T13:40:26;101134.25;;;26.54;30.24
19005;BME280;9635;52.078;8.648;2023-05-29T13:45:29;101132.72;;;26.71;30.09
19005;BME280;9635;52.078;8.648;2023-05-29T13:50:32;101137.13;;;25.99;30.02
19005;BME280;9635;52.078;8.648;2023-05-29T13:55:36;101121.72;;;26.24;29.34
19005;BME280;9635;52.078;8.648;2023-05-29T14:00:39;101128.75;;;26.47;28.98
19005;BME280;9635;52.078;8.648;2023-05-29T14:05:42;101134.66;;;26.44;28.51
19005;BME280;9635;52.078;8.648;2023-05-29T14:10:46;101130.00;;;26.58;26.82
19005;BME280;9635;52.078;8.648;2023-05-29T14:15:49;101135.50;;;26.38;26.73
19005;BME280;9635;52.078;8.648;2023-05-29T14:20:52;101127.88;;;26.60;26.14
19005;BME280;9635;52.078;8.648;2023-05-29T14:25:57;101120.69;;;26.39;26.19
19005;BME280;9635;52.078;8.648;2023-05-29T14:30:59;101124.06;;;26.27;26.21
19005;BME280;9635;52.078;8.648;2023-05-29T14:36:02;101138.47;;;26.43;26.24
19005;BME280;9635;52.078;8.648;2023-05-29T14:41:07;101123.78;;;25.89;26.80
19005;BME280;9635;52.078;8.648;2023-05-29T14:46:10;101129.25;;;25.76;26.43
19005;BME280;9635;52.078;8.648;2023-05-29T14:51:13;101115.53;;;25.96;26.11
19005;BME280;9635;52.078;8.648;2023-05-29T14:56:18;101117.88;;;26.05;25.73
19005;BME280;9635;52.078;8.648;2023-05-29T15:01:21;101128.88;;;26.05;26.98
19005;BME280;9635;52.078;8.648;2023-05-29T15:06:24;101125.09;;;26.20;27.38
19005;BME280;9635;52.078;8.648;2023-05-29T15:11:29;101121.94;;;26.43;27.08
19005;BME280;9635;52.078;8.648;2023-05-29T15:16:32;101124.88;;;26.21;26.96
19005;BME280;9635;52.078;8.648;2023-05-29T15:21:35;101117.66;;;26.07;25.85
19005;BME280;9635;52.078;8.648;2023-05-29T15:26:39;101116.78;;;25.87;26.47
19005;BME280;9635;52.078;8.648;2023-05-29T15:31:42;101099.88;;;26.10;26.38
19005;BME280;9635;52.078;8.648;2023-05-29T15:36:45;101101.75;;;25.89;26.62
19005;BME280;9635;52.078;8.648;2023-05-29T15:41:49;101105.50;;;25.68;27.12
19005;BME280;9635;52.078;8.648;2023-05-29T15:46:52;101107.84;;;25.71;26.95
19005;BME280;9635;52.078;8.648;2023-05-29T15:51:55;101108.06;;;25.83;26.74
19005;BME280;9635;52.078;8.648;2023-05-29T15:56:59;101099.50;;;25.58;27.52
19005;BME280;9635;52.078;8.648;2023-05-29T16:02:04;101109.28;;;25.19;28.22
19005;BME280;9635;52.078;8.648;2023-05-29T16:07:07;101102.94;;;25.67;27.09
19005;BME280;9635;52.078;8.648;2023-05-29T16:12:12;101104.91;;;25.73;25.87
19005;BME280;9635;52.078;8.648;2023-05-29T16:17:15;101107.72;;;25.45;25.75
19005;BME280;9635;52.078;8.648;2023-05-29T16:22:17;101106.16;;;25.70;26.04
19005;BME280;9635;52.078;8.648;2023-05-29T16:27:22;101106.16;;;25.70;26.05
19005;BME280;9635;52.078;8.648;2023-05-29T16:32:24;101113.56;;;25.28;27.66
19005;BME280;9635;52.078;8.648;2023-05-29T16:37:29;101101.50;;;27.24;25.62
19005;BME280;9635;52.078;8.648;2023-05-29T16:42:33;101097.03;;;29.43;23.62
19005;BME280;9635;52.078;8.648;2023-05-29T16:47:36;101108.69;;;31.18;21.40
19005;BME280;9635;52.078;8.648;2023-05-29T16:52:39;101096.16;;;32.30;21.04
19005;BME280;9635;52.078;8.648;2023-05-29T16:57:43;101109.16;;;33.14;20.83
19005;BME280;9635;52.078;8.648;2023-05-29T17:02:46;101105.78;;;32.56;20.25
19005;BME280;9635;52.078;8.648;2023-05-29T17:07:49;101103.66;;;33.41;19.59
19005;BME280;9635;52.078;8.648;2023-05-29T17:12:54;101105.88;;;33.88;19.33
19005;BME280;9635;52.078;8.648;2023-05-29T17:17:57;101111.31;;;35.07;18.10
19005;BME280;9635;52.078;8.648;2023-05-29T17:22:59;101112.47;;;34.74;18.27
19005;BME280;9635;52.078;8.648;2023-05-29T17:28:04;101118.16;;;33.92;19.14
19005;BME280;9635;52.078;8.648;2023-05-29T17:33:08;101120.31;;;33.14;20.28
19005;BME280;9635;52.078;8.648;2023-05-29T17:38:11;101119.75;;;32.44;20.38
19005;BME280;9635;52.078;8.648;2023-05-29T17:43:15;101127.50;;;31.04;21.81
19005;BME280;9635;52.078;8.648;2023-05-29T17:48:18;101126.09;;;28.90;23.19
19005;BME280;9635;52.078;8.648;2023-05-29T17:53:21;101136.31;;;24.52;27.42
19005;BME280;9635;52.078;8.648;2023-05-29T17:58:26;101149.97;;;21.69;30.43
19005;BME280;9635;52.078;8.648;2023-05-29T18:03:28;101146.19;;;20.34;31.95
19005;BME280;9635;52.078;8.648;2023-05-29T18:08:31;101155.97;;;19.78;33.22
19005;BME280;9635;52.078;8.648;2023-05-29T18:13:36;101164.25;;;19.26;34.33
19005;BME280;9635;52.078;8.648;2023-05-29T18:18:39;101164.63;;;18.78;34.15
19005;BME280;9635;52.078;8.648;2023-05-29T18:23:42;101165.63;;;18.33;34.63
19005;BME280;9635;52.078;8.648;2023-05-29T18:28:47;101172.31;;;17.93;35.48
19005;BME280;9635;52.078;8.648;2023-05-29T18:33:49;101173.38;;;17.65;35.89
19005;BME280;9635;52.078;8.648;2023-05-29T18:38:52;101176.16;;;17.55;36.51
19005;BME280;9635;52.078;8.648;2023-05-29T18:43:57;101171.78;;;17.35;36.95
19005;BME280;9635;52.078;8.648;2023-05-29T18:49:00;101176.56;;;17.23;37.49
19005;BME280;9635;52.078;8.648;2023-05-29T18:54:03;101181.88;;;17.05;37.37
19005;BME280;9635;52.078;8.648;2023-05-29T18:59:10;101176.19;;;16.89;37.92
19005;BME280;9635;52.078;8.648;2023-05-29T19:04:13;101179.66;;;16.71;38.03
19005;BME280;9635;52.078;8.648;2023-05-29T19:09:16;101177.28;;;16.49;38.44
19005;BME280;9635;52.078;8.648;2023-05-29T19:14:20;101178.69;;;16.24;38.52
19005;BME280;9635;52.078;8.648;2023-05-29T19:19:23;101180.94;;;16.09;39.29
19005;BME280;9635;52.078;8.648;2023-05-29T19:24:26;101190.44;;;15.84;39.61
19005;BME280;9635;52.078;8.648;2023-05-29T19:29:30;101195.38;;;15.59;40.12
19005;BME280;9635;52.078;8.648;2023-05-29T19:34:33;101188.53;;;15.55;40.05
19005;BME280;9635;52.078;8.648;2023-05-29T19:39:36;101192.78;;;15.48;40.22
19005;BME280;9635;52.078;8.648;2023-05-29T19:44:41;101209.03;;;15.27;40.10
19005;BME280;9635;52.078;8.648;2023-05-29T19:49:44;101217.50;;;15.13;40.79
19005;BME280;9635;52.078;8.648;2023-05-29T19:54:47;101216.72;;;15.01;40.75
19005;BME280;9635;52.078;8.648;2023-05-29T19:59:51;101220.91;;;14.84;40.36
19005;BME280;9635;52.078;8.648;2023-05-29T20:04:59;101229.84;;;14.64;40.14
19005;BME280;9635;52.078;8.648;2023-05-29T20:10:04;101227.19;;;14.52;39.81
19005;BME280;9635;52.078;8.648;2023-05-29T20:15:09;101234.84;;;14.36;40.31
19005;BME280;9635;52.078;8.648;2023-05-29T20:20:13;101231.31;;;14.24;40.03
19005;BME280;9635;52.078;8.648;2023-05-29T20:25:16;101240.19;;;14.15;40.01
19005;BME280;9635;52.078;8.648;2023-05-29T20:30:20;101245.25;;;14.08;40.39
19005;BME280;9635;52.078;8.648;2023-05-29T20:35:23;101255.47;;;13.93;41.06
19005;BME280;9635;52.078;8.648;2023-05-29T20:40:27;101252.06;;;13.80;41.82
19005;BME280;9635;52.078;8.648;2023-05-29T20:45:31;101252.91;;;13.69;42.36
19005;BME280;9635;52.078;8.648;2023-05-29T20:50:34;101255.22;;;13.63;42.45
19005;BME280;9635;52.078;8.648;2023-05-29T20:55:37;101267.34;;;13.35;43.33
19005;BME280;9635;52.078;8.648;2023-05-29T21:00:41;101268.66;;;13.18;42.54
19005;BME280;9635;52.078;8.648;2023-05-29T21:05:44;101276.72;;;12.95;42.58
19005;BME280;9635;52.078;8.648;2023-05-29T21:10:47;101271.56;;;12.92;43.35
19005;BME280;9635;52.078;8.648;2023-05-29T21:15:53;101279.69;;;13.03;43.10
19005;BME280;9635;52.078;8.648;2023-05-29T21:20:56;101275.38;;;13.01;43.68
19005;BME280;9635;52.078;8.648;2023-05-29T21:25:59;101275.09;;;12.93;44.00
19005;BME280;9635;52.078;8.648;2023-05-29T21:31:04;101277.91;;;12.91;44.63
19005;BME280;9635;52.078;8.648;2023-05-29T21:36:08;101278.25;;;12.75;45.28
19005;BME280;9635;52.078;8.648;2023-05-29T21:41:12;101294.69;;;12.83;45.45
19005;BME280;9635;52.078;8.648;2023-05-29T21:46:16;101295.16;;;12.77;45.99
19005;BME280;9635;52.078;8.648;2023-05-29T21:51:19;101298.31;;;12.71;46.49
19005;BME280;9635;52.078;8.648;2023-05-29T21:56:22;101298.31;;;12.47;47.18
19005;BME280;9635;52.078;8.648;2023-05-29T22:01:29;101309.50;;;12.17;48.98
19005;BME280;9635;52.078;8.648;2023-05-29T22:06:33;101302.97;;;11.95;50.40
19005;BME280;9635;52.078;8.648;2023-05-29T22:11:37;101307.19;;;11.87;51.19
19005;BME280;9635;52.078;8.648;2023-05-29T22:16:43;101310.03;;;11.72;52.57
19005;BME280;9635;52.078;8.648;2023-05-29T22:21:46;101305.72;;;11.57;53.58
19005;BME280;9635;52.078;8.648;2023-05-29T22:26:49;101314.03;;;11.41;55.03
19005;BME280;9635;52.078;8.648;2023-05-29T22:31:54;101317.88;;;11.37;56.00
19005;BME280;9635;52.078;8.648;2023-05-29T22:36:57;101315.84;;;11.41;56.74
19005;BME280;9635;52.078;8.648;2023-05-29T22:41:59;101319.16;;;11.19;58.09
19005;BME280;9635;52.078;8.648;2023-05-29T22:47:04;101322.63;;;11.34;58.05
19005;BME280;9635;52.078;8.648;2023-05-29T22:52:07;101320.03;;;11.19;58.70
19005;BME280;9635;52.078;8.648;2023-05-29T22:57:11;101323.13;;;11.13;59.31
19005;BME280;9635;52.078;8.648;2023-05-29T23:02:15;101320.34;;;11.15;59.23
19005;BME280;9635;52.078;8.648;2023-05-29T23:07:18;101323.47;;;10.81;59.93
19005;BME280;9635;52.078;8.648;2023-05-29T23:12:22;101324.97;;;10.86;60.58
19005;BME280;9635;52.078;8.648;2023-05-29T23:17:26;101322.06;;;10.89;60.74
19005;BME280;9635;52.078;8.648;2023-05-29T23:22:29;101313.63;;;10.95;60.93
19005;BME280;9635;52.078;8.648;2023-05-29T23:27:31;101307.69;;;10.90;61.18
19005;BME280;9635;52.078;8.648;2023-05-29T23:32:36;101312.81;;;10.80;61.80
19005;BME280;9635;52.078;8.648;2023-05-29T23:37:39;101309.56;;;10.75;62.12
19005;BME280;9635;52.078;8.648;2023-05-29T23:42:42;101321.56;;;10.56;63.08
19005;BME280;9635;52.078;8.648;2023-05-29T23:47:46;101322.66;;;10.67;62.86
19005;BME280;9635;52.078;8.648;2023-05-29T23:52:50;101319.03;;;10.80;62.71
19005;BME280;9635;52.078;8.648;2023-05-29T23:57:53;101309.78;;;10.72;62.88
